sensor_id;sensor_type;location;lat;lon;timestamp;temperature;humidity
3408;DHT22;1717;50.240;8.406;2023-02-28T00:00:07;1.50;97.50
3408;DHT22;1717;50.240;8.406;2023-02-28T00:02:36;1.50;97.40
3408;DHT22;1717;50.240;8.406;2023-02-28T00:05:03;1.70;97.50
3408;DHT22;1717;50.240;8.406;2023-02-28T00:07:30;1.50;97.40
3408;DHT22;1717;50.240;8.406;2023-02-28T00:09:57;1.50;97.40
3408;DHT22;1717;50.240;8.406;2023-02-28T00:12:24;1.50;97.30
3408;DHT22;1717;50.240;8.406;2023-02-28T00:14:53;1.50;97.30
3408;DHT22;1717;50.240;8.406;2023-02-28T00:17:20;1.50;97.40
3408;DHT22;1717;50.240;8.406;2023-02-28T00:19:47;1.50;97.40
3408;DHT22;1717;50.240;8.406;2023-02-28T00:22:15;1.50;97.50
3408;DHT22;1717;50.240;8.406;2023-02-28T00:24:42;1.50;97.70
3408;DHT22;1717;50.240;8.406;2023-02-28T00:27:09;1.40;97.70
3408;DHT22;1717;50.240;8.406;2023-02-28T00:29:36;1.40;97.80
3408;DHT22;1717;50.240;8.406;2023-02-28T00:32:05;1.40;97.80
3408;DHT22;1717;50.240;8.406;2023-02-28T00:34:32;1.40;97.90
3408;DHT22;1717;50.240;8.406;2023-02-28T00:37:03;1.40;97.90
3408;DHT22;1717;50.240;8.406;2023-02-28T00:39:31;1.40;98.00
3408;DHT22;1717;50.240;8.406;2023-02-28T00:41:58;1.30;98.00
3408;DHT22;1717;50.240;8.406;2023-02-28T00:44:25;1.30;98.20
3408;DHT22;1717;50.240;8.406;2023-02-28T00:46:51;1.30;98.30
3408;DHT22;1717;50.240;8.406;2023-02-28T00:49:21;1.30;98.40
3408;DHT22;1717;50.240;8.406;2023-02-28T00:51:48;1.30;98.70
3408;DHT22;1717;50.240;8.406;2023-02-28T00:54:16;1.20;98.90
3408;DHT22;1717;50.240;8.406;2023-02-28T00:56:43;1.20;99.00
3408;DHT22;1717;50.240;8.406;2023-02-28T00:59:11;1.20;99.00
3408;DHT22;1717;50.240;8.406;2023-02-28T01:01:38;1.30;99.00
3408;DHT22;1717;50.240;8.406;2023-02-28T01:04:05;1.20;99.00
3408;DHT22;1717;50.240;8.406;2023-02-28T01:06:33;1.20;99.10
3408;DHT22;1717;50.240;8.406;2023-02-28T01:09:01;1.20;99.10
3408;DHT22;1717;50.240;8.406;2023-02-28T01:11:29;1.20;99.10
3408;DHT22;1717;50.240;8.406;2023-02-28T01:13:56;1.20;99.10
3408;DHT22;1717;50.240;8.406;2023-02-28T01:16:23;1.30;99.20
3408;DHT22;1717;50.240;8.406;2023-02-28T01:18:50;1.10;99.20
3408;DHT22;1717;50.240;8.406;2023-02-28T01:21:19;1.10;99.10
3408;DHT22;1717;50.240;8.406;2023-02-28T01:23:48;1.10;99.10
3408;DHT22;1717;50.240;8.406;2023-02-28T01:26:17;1.10;99.10
3408;DHT22;1717;50.240;8.406;2023-02-28T01:28:45;1.00;99.10
3408;DHT22;1717;50.240;8.406;2023-02-28T01:31:12;1.00;99.20
3408;DHT22;1717;50.240;8.406;2023-02-28T01:33:39;1.00;99.20
3408;DHT22;1717;50.240;8.406;2023-02-28T01:36:09;1.00;99.30
3408;DHT22;1717;50.240;8.406;2023-02-28T01:38:37;1.00;99.40
3408;DHT22;1717;50.240;8.406;2023-02-28T01:41:06;0.90;99.40
3408;DHT22;1717;50.240;8.406;2023-02-28T01:43:54;0.90;99.40
3408;DHT22;1717;50.240;8.406;2023-02-28T01:46:21;0.80;99.50
3408;DHT22;1717;50.240;8.406;2023-02-28T01:48:51;0.80;99.50
3408;DHT22;1717;50.240;8.406;2023-02-28T01:51:22;0.80;99.70
3408;DHT22;1717;50.240;8.406;2023-02-28T01:53:54;0.70;99.60
3408;DHT22;1717;50.240;8.406;2023-02-28T01:56:27;0.70;99.70
3408;DHT22;1717;50.240;8.406;2023-02-28T01:58:56;0.70;99.70
3408;DHT22;1717;50.240;8.406;2023-02-28T02:01:24;0.70;99.60
3408;DHT22;1717;50.240;8.406;2023-02-28T02:03:55;0.60;99.50
3408;DHT22;1717;50.240;8.406;2023-02-28T02:06:28;0.60;99.50
3408;DHT22;1717;50.240;8.406;2023-02-28T02:08:56;0.60;99.50
3408;DHT22;1717;50.240;8.406;2023-02-28T02:11:24;0.50;99.50
3408;DHT22;1717;50.240;8.406;2023-02-28T02:14:09;0.50;99.50
3408;DHT22;1717;50.240;8.406;2023-02-28T02:16:48;0.50;99.40
3408;DHT22;1717;50.240;8.406;2023-02-28T02:19:36;0.40;99.20
3408;DHT22;1717;50.240;8.406;2023-02-28T02:25:11;0.40;99.50
3408;DHT22;1717;50.240;8.406;2023-02-28T02:31:18;0.30;99.50
3408;DHT22;1717;50.240;8.406;2023-02-28T02:34:24;0.30;99.50
3408;DHT22;1717;50.240;8.406;2023-02-28T02:36:57;0.20;99.60
3408;DHT22;1717;50.240;8.406;2023-02-28T02:39:31;0.20;99.80
3408;DHT22;1717;50.240;8.406;2023-02-28T02:42:09;0.20;99.80
3408;DHT22;1717;50.240;8.406;2023-02-28T02:44:42;0.20;99.70
3408;DHT22;1717;50.240;8.406;2023-02-28T02:47:13;0.10;99.80
3408;DHT22;1717;50.240;8.406;2023-02-28T02:49:45;0.10;99.70
3408;DHT22;1717;50.240;8.406;2023-02-28T02:52:15;0.10;99.80
3408;DHT22;1717;50.240;8.406;2023-02-28T02:54:45;0.10;99.90
3408;DHT22;1717;50.240;8.406;2023-02-28T02:57:20;0.10;99.90
3408;DHT22;1717;50.240;8.406;2023-02-28T02:59:50;0.10;99.90
3408;DHT22;1717;50.240;8.406;2023-02-28T03:02:18;0.10;99.90
3408;DHT22;1717;50.240;8.406;2023-02-28T03:04:53;0.10;99.90
3408;DHT22;1717;50.240;8.406;2023-02-28T03:07:27;0.10;99.90
3408;DHT22;1717;50.240;8.406;2023-02-28T03:09:55;0.10;99.90
3408;DHT22;1717;50.240;8.406;2023-02-28T03:12:25;0.00;99.80
3408;DHT22;1717;50.240;8.406;2023-02-28T03:15:01;0.00;99.80
3408;DHT22;1717;50.240;8.406;2023-02-28T03:17:54;0.00;99.80
3408;DHT22;1717;50.240;8.406;2023-02-28T03:20:35;-0.10;99.70
3408;DHT22;1717;50.240;8.406;2023-02-28T03:23:10;-0.10;99.70
3408;DHT22;1717;50.240;8.406;2023-02-28T03:25:50;-0.10;99.70
3408;DHT22;1717;50.240;8.406;2023-02-28T03:28:28;-0.10;99.70
3408;DHT22;1717;50.240;8.406;2023-02-28T03:31:00;-0.20;99.50
3408;DHT22;1717;50.240;8.406;2023-02-28T03:33:31;-0.20;99.50
3408;DHT22;1717;50.240;8.406;2023-02-28T03:36:04;-0.20;99.40
3408;DHT22;1717;50.240;8.406;2023-02-28T03:38:34;-0.20;99.50
3408;DHT22;1717;50.240;8.406;2023-02-28T03:41:06;-0.20;99.60
3408;DHT22;1717;50.240;8.406;2023-02-28T03:43:39;-0.30;99.50
3408;DHT22;1717;50.240;8.406;2023-02-28T03:46:10;-0.30;99.40
3408;DHT22;1717;50.240;8.406;2023-02-28T03:48:42;-0.40;99.20
3408;DHT22;1717;50.240;8.406;2023-02-28T03:51:15;-0.40;99.40
3408;DHT22;1717;50.240;8.406;2023-02-28T03:53:45;-0.40;99.50
3408;DHT22;1717;50.240;8.406;2023-02-28T03:56:16;-0.40;99.50
3408;DHT22;1717;50.240;8.406;2023-02-28T03:58:51;-0.40;99.60
3408;DHT22;1717;50.240;8.406;2023-02-28T04:01:23;-0.40;99.80
3408;DHT22;1717;50.240;8.406;2023-02-28T04:03:52;-0.40;99.60
3408;DHT22;1717;50.240;8.406;2023-02-28T04:06:22;-0.40;99.50
3408;DHT22;1717;50.240;8.406;2023-02-28T04:08:49;-0.50;99.50
3408;DHT22;1717;50.240;8.406;2023-02-28T04:11:22;-0.50;99.60
3408;DHT22;1717;50.240;8.406;2023-02-28T04:13:50;-0.50;99.60
3408;DHT22;1717;50.240;8.406;2023-02-28T04:16:19;-0.50;99.60
3408;DHT22;1717;50.240;8.406;2023-02-28T04:18:46;-0.50;99.60
3408;DHT22;1717;50.240;8.406;2023-02-28T04:21:12;-0.50;99.50
3408;DHT22;1717;50.240;8.406;2023-02-28T04:23:41;-0.50;99.50
3408;DHT22;1717;50.240;8.406;2023-02-28T04:26:08;-0.50;99.40
3408;DHT22;1717;50.240;8.406;2023-02-28T04:28:36;-0.50;99.20
3408;DHT22;1717;50.240;8.406;2023-02-28T04:31:04;-0.60;99.10
3408;DHT22;1717;50.240;8.406;2023-02-28T04:33:32;-0.60;99.20
3408;DHT22;1717;50.240;8.406;2023-02-28T04:36:00;-0.60;99.20
3408;DHT22;1717;50.240;8.406;2023-02-28T04:38:28;-0.60;99.20
3408;DHT22;1717;50.240;8.406;2023-02-28T04:40:58;-0.60;99.00
3408;DHT22;1717;50.240;8.406;2023-02-28T04:43:26;-0.70;98.80
3408;DHT22;1717;50.240;8.406;2023-02-28T04:45:53;-0.60;98.80
3408;DHT22;1717;50.240;8.406;2023-02-28T04:48:22;-0.70;98.70
3408;DHT22;1717;50.240;8.406;2023-02-28T04:50:49;-0.70;98.90
3408;DHT22;1717;50.240;8.406;2023-02-28T04:53:15;-0.70;98.90
3408;DHT22;1717;50.240;8.406;2023-02-28T04:55:42;-0.80;98.70
3408;DHT22;1717;50.240;8.406;2023-02-28T04:58:10;-0.80;98.70
3408;DHT22;1717;50.240;8.406;2023-02-28T05:00:37;-0.80;98.60
3408;DHT22;1717;50.240;8.406;2023-02-28T05:03:04;-0.80;98.50
3408;DHT22;1717;50.240;8.406;2023-02-28T05:05:31;-0.80;98.60
3408;DHT22;1717;50.240;8.406;2023-02-28T05:07:58;-0.80;98.60
3408;DHT22;1717;50.240;8.406;2023-02-28T05:10:25;-0.80;98.60
3408;DHT22;1717;50.240;8.406;2023-02-28T05:12:52;-0.90;98.50
3408;DHT22;1717;50.240;8.406;2023-02-28T05:15:20;-0.90;98.50
3408;DHT22;1717;50.240;8.406;2023-02-28T05:17:47;-0.90;98.50
3408;DHT22;1717;50.240;8.406;2023-02-28T05:20:14;-0.90;98.50
3408;DHT22;1717;50.240;8.406;2023-02-28T05:22:41;-1.00;99.00
3408;DHT22;1717;50.240;8.406;2023-02-28T05:25:12;-1.00;98.80
3408;DHT22;1717;50.240;8.406;2023-02-28T05:27:40;-1.10;99.60
3408;DHT22;1717;50.240;8.406;2023-02-28T05:30:08;-1.10;99.90
3408;DHT22;1717;50.240;8.406;2023-02-28T05:32:37;-1.10;99.90
3408;DHT22;1717;50.240;8.406;2023-02-28T05:35:05;-1.20;99.90
3408;DHT22;1717;50.240;8.406;2023-02-28T05:37:31;-1.20;99.90
3408;DHT22;1717;50.240;8.406;2023-02-28T05:39:58;-1.20;99.90
3408;DHT22;1717;50.240;8.406;2023-02-28T05:42:25;-1.20;99.90
3408;DHT22;1717;50.240;8.406;2023-02-28T05:44:52;-1.20;99.90
3408;DHT22;1717;50.240;8.406;2023-02-28T05:47:19;-1.20;99.90
3408;DHT22;1717;50.240;8.406;2023-02-28T05:49:47;-1.20;99.90
3408;DHT22;1717;50.240;8.406;2023-02-28T05:52:14;-1.20;99.90
3408;DHT22;1717;50.240;8.406;2023-02-28T05:54:41;-1.20;99.90
3408;DHT22;1717;50.240;8.406;2023-02-28T05:57:08;-1.20;99.90
3408;DHT22;1717;50.240;8.406;2023-02-28T05:59:35;-1.20;99.90
3408;DHT22;1717;50.240;8.406;2023-02-28T06:02:11;-1.20;99.90
3408;DHT22;1717;50.240;8.406;2023-02-28T06:04:39;-1.20;99.90
3408;DHT22;1717;50.240;8.406;2023-02-28T06:07:08;-1.20;99.90
3408;DHT22;1717;50.240;8.406;2023-02-28T06:09:36;-1.30;99.90
3408;DHT22;1717;50.240;8.406;2023-02-28T06:12:05;-1.30;99.90
3408;DHT22;1717;50.240;8.406;2023-02-28T06:14:34;-1.30;99.90
3408;DHT22;1717;50.240;8.406;2023-02-28T06:17:02;-1.40;99.90
3408;DHT22;1717;50.240;8.406;2023-02-28T06:19:29;-1.40;99.90
3408;DHT22;1717;50.240;8.406;2023-02-28T06:21:56;-1.40;99.90
3408;DHT22;1717;50.240;8.406;2023-02-28T06:24:27;-1.40;99.90
3408;DHT22;1717;50.240;8.406;2023-02-28T06:26:54;-1.40;99.90
3408;DHT22;1717;50.240;8.406;2023-02-28T06:29:21;-1.40;99.90
3408;DHT22;1717;50.240;8.406;2023-02-28T06:31:48;-1.40;99.90
3408;DHT22;1717;50.240;8.406;2023-02-28T06:34:15;-1.40;99.90
3408;DHT22;1717;50.240;8.406;2023-02-28T06:36:42;-1.40;99.90
3408;DHT22;1717;50.240;8.406;2023-02-28T06:39:09;-1.40;99.90
3408;DHT22;1717;50.240;8.406;2023-02-28T06:41:38;-1.30;99.90
3408;DHT22;1717;50.240;8.406;2023-02-28T06:44:08;-1.40;99.90
3408;DHT22;1717;50.240;8.406;2023-02-28T06:46:38;-1.30;99.90
3408;DHT22;1717;50.240;8.406;2023-02-28T06:49:05;-1.30;99.90
3408;DHT22;1717;50.240;8.406;2023-02-28T06:51:35;-1.40;99.90
3408;DHT22;1717;50.240;8.406;2023-02-28T06:54:02;-1.30;99.90
3408;DHT22;1717;50.240;8.406;2023-02-28T06:56:29;-1.40;99.90
3408;DHT22;1717;50.240;8.406;2023-02-28T06:58:57;-1.40;99.90
3408;DHT22;1717;50.240;8.406;2023-02-28T07:01:24;-1.40;99.90
3408;DHT22;1717;50.240;8.406;2023-02-28T07:03:51;-1.50;99.90
3408;DHT22;1717;50.240;8.406;2023-02-28T07:06:18;-1.50;99.90
3408;DHT22;1717;50.240;8.406;2023-02-28T07:08:45;-1.50;99.90
3408;DHT22;1717;50.240;8.406;2023-02-28T07:11:12;-1.60;99.90
3408;DHT22;1717;50.240;8.406;2023-02-28T07:13:39;-1.50;99.90
3408;DHT22;1717;50.240;8.406;2023-02-28T07:16:12;-1.60;99.90
3408;DHT22;1717;50.240;8.406;2023-02-28T07:18:39;-1.50;99.90
3408;DHT22;1717;50.240;8.406;2023-02-28T07:21:08;-1.50;99.90
3408;DHT22;1717;50.240;8.406;2023-02-28T07:23:36;-1.50;99.90
3408;DHT22;1717;50.240;8.406;2023-02-28T07:26:12;-1.50;99.90
3408;DHT22;1717;50.240;8.406;2023-02-28T07:28:40;-1.50;99.90
3408;DHT22;1717;50.240;8.406;2023-02-28T07:31:09;-1.40;99.90
3408;DHT22;1717;50.240;8.406;2023-02-28T07:33:37;-1.50;99.90
3408;DHT22;1717;50.240;8.406;2023-02-28T07:36:06;-1.50;99.90
3408;DHT22;1717;50.240;8.406;2023-02-28T07:38:34;-1.50;99.90
3408;DHT22;1717;50.240;8.406;2023-02-28T07:41:01;-1.50;99.90
3408;DHT22;1717;50.240;8.406;2023-02-28T07:43:29;-1.40;99.90
3408;DHT22;1717;50.240;8.406;2023-02-28T07:46:01;-1.40;99.90
3408;DHT22;1717;50.240;8.406;2023-02-28T07:48:30;-1.40;99.90
3408;DHT22;1717;50.240;8.406;2023-02-28T07:50:57;-1.30;99.90
3408;DHT22;1717;50.240;8.406;2023-02-28T07:53:24;-1.40;99.90
3408;DHT22;1717;50.240;8.406;2023-02-28T07:55:54;-1.40;99.90
3408;DHT22;1717;50.240;8.406;2023-02-28T07:58:21;-1.30;99.90
3408;DHT22;1717;50.240;8.406;2023-02-28T08:00:48;-1.30;99.90
3408;DHT22;1717;50.240;8.406;2023-02-28T08:03:16;-1.20;99.90
3408;DHT22;1717;50.240;8.406;2023-02-28T08:05:44;-1.10;99.90
3408;DHT22;1717;50.240;8.406;2023-02-28T08:08:11;-1.10;99.90
3408;DHT22;1717;50.240;8.406;2023-02-28T08:10:38;-1.00;99.90
3408;DHT22;1717;50.240;8.406;2023-02-28T08:13:05;-0.90;99.90
3408;DHT22;1717;50.240;8.406;2023-02-28T08:15:31;-0.80;99.90
3408;DHT22;1717;50.240;8.406;2023-02-28T08:17:58;-0.80;99.90
3408;DHT22;1717;50.240;8.406;2023-02-28T08:20:26;-0.70;99.90
3408;DHT22;1717;50.240;8.406;2023-02-28T08:22:54;-0.60;99.90
3408;DHT22;1717;50.240;8.406;2023-02-28T08:25:21;-0.60;99.90
3408;DHT22;1717;50.240;8.406;2023-02-28T08:27:50;-0.50;99.90
3408;DHT22;1717;50.240;8.406;2023-02-28T08:30:17;-0.40;99.90
3408;DHT22;1717;50.240;8.406;2023-02-28T08:32:44;-0.40;99.90
3408;DHT22;1717;50.240;8.406;2023-02-28T08:35:11;-0.30;99.90
3408;DHT22;1717;50.240;8.406;2023-02-28T08:37:38;-0.30;99.90
3408;DHT22;1717;50.240;8.406;2023-02-28T08:40:08;-0.20;99.90
3408;DHT22;1717;50.240;8.406;2023-02-28T08:42:35;-0.10;99.90
3408;DHT22;1717;50.240;8.406;2023-02-28T08:45:03;0.00;99.90
3408;DHT22;1717;50.240;8.406;2023-02-28T08:47:30;0.00;99.90
3408;DHT22;1717;50.240;8.406;2023-02-28T08:49:56;0.10;99.90
3408;DHT22;1717;50.240;8.406;2023-02-28T08:52:23;0.10;99.90
3408;DHT22;1717;50.240;8.406;2023-02-28T08:54:50;0.40;99.90
3408;DHT22;1717;50.240;8.406;2023-02-28T08:57:18;0.20;99.90
3408;DHT22;1717;50.240;8.406;2023-02-28T08:59:45;0.20;99.90
3408;DHT22;1717;50.240;8.406;2023-02-28T09:02:13;0.30;99.90
3408;DHT22;1717;50.240;8.406;2023-02-28T09:04:40;0.30;99.90
3408;DHT22;1717;50.240;8.406;2023-02-28T09:07:08;0.40;99.90
3408;DHT22;1717;50.240;8.406;2023-02-28T09:09:34;0.40;99.90
3408;DHT22;1717;50.240;8.406;2023-02-28T09:12:01;0.40;99.90
3408;DHT22;1717;50.240;8.406;2023-02-28T09:14:30;0.50;99.90
3408;DHT22;1717;50.240;8.406;2023-02-28T09:16:56;0.50;99.90
3408;DHT22;1717;50.240;8.406;2023-02-28T09:19:24;0.50;99.90
3408;DHT22;1717;50.240;8.406;2023-02-28T09:21:51;0.60;99.90
3408;DHT22;1717;50.240;8.406;2023-02-28T09:24:18;0.60;99.90
3408;DHT22;1717;50.240;8.406;2023-02-28T09:26:46;0.60;99.90
3408;DHT22;1717;50.240;8.406;2023-02-28T09:29:13;0.70;99.90
3408;DHT22;1717;50.240;8.406;2023-02-28T09:31:41;0.80;99.90
3408;DHT22;1717;50.240;8.406;2023-02-28T09:34:08;0.90;99.90
3408;DHT22;1717;50.240;8.406;2023-02-28T09:36:35;1.00;99.90
3408;DHT22;1717;50.240;8.406;2023-02-28T09:39:03;1.00;99.90
3408;DHT22;1717;50.240;8.406;2023-02-28T09:41:37;1.10;99.90
3408;DHT22;1717;50.240;8.406;2023-02-28T09:44:07;1.20;99.90
3408;DHT22;1717;50.240;8.406;2023-02-28T09:46:42;1.20;99.90
3408;DHT22;1717;50.240;8.406;2023-02-28T09:49:14;1.40;99.90
3408;DHT22;1717;50.240;8.406;2023-02-28T09:51:47;1.40;99.90
3408;DHT22;1717;50.240;8.406;2023-02-28T09:54:19;1.50;99.90
3408;DHT22;1717;50.240;8.406;2023-02-28T09:56:50;1.50;99.80
3408;DHT22;1717;50.240;8.406;2023-02-28T09:59:29;1.60;99.90
3408;DHT22;1717;50.240;8.406;2023-02-28T10:02:04;1.70;99.70
3408;DHT22;1717;50.240;8.406;2023-02-28T10:04:41;1.70;98.80
3408;DHT22;1717;50.240;8.406;2023-02-28T10:07:18;1.70;99.20
3408;DHT22;1717;50.240;8.406;2023-02-28T10:09:50;1.80;98.80
3408;DHT22;1717;50.240;8.406;2023-02-28T10:12:17;1.80;98.50
3408;DHT22;1717;50.240;8.406;2023-02-28T10:14:49;2.10;98.00
3408;DHT22;1717;50.240;8.406;2023-02-28T10:17:21;1.90;97.90
3408;DHT22;1717;50.240;8.406;2023-02-28T10:19:56;2.00;97.70
3408;DHT22;1717;50.240;8.406;2023-02-28T10:22:27;2.00;97.20
3408;DHT22;1717;50.240;8.406;2023-02-28T10:24:56;2.10;97.20
3408;DHT22;1717;50.240;8.406;2023-02-28T10:27:29;2.10;96.90
3408;DHT22;1717;50.240;8.406;2023-02-28T10:29:59;2.20;96.30
3408;DHT22;1717;50.240;8.406;2023-02-28T10:32:30;2.30;95.60
3408;DHT22;1717;50.240;8.406;2023-02-28T10:35:00;2.30;95.70
3408;DHT22;1717;50.240;8.406;2023-02-28T10:37:28;2.30;95.40
3408;DHT22;1717;50.240;8.406;2023-02-28T10:39:55;2.40;95.30
3408;DHT22;1717;50.240;8.406;2023-02-28T10:42:24;2.40;94.60
3408;DHT22;1717;50.240;8.406;2023-02-28T10:45:09;2.50;94.30
3408;DHT22;1717;50.240;8.406;2023-02-28T10:47:48;2.50;93.90
3408;DHT22;1717;50.240;8.406;2023-02-28T10:50:32;2.60;93.80
3408;DHT22;1717;50.240;8.406;2023-02-28T10:53:27;2.60;93.10
3408;DHT22;1717;50.240;8.406;2023-02-28T10:55:59;2.60;93.00
3408;DHT22;1717;50.240;8.406;2023-02-28T10:58:28;2.70;92.90
3408;DHT22;1717;50.240;8.406;2023-02-28T11:00:55;2.70;92.90
3408;DHT22;1717;50.240;8.406;2023-02-28T11:03:41;2.80;92.40
3408;DHT22;1717;50.240;8.406;2023-02-28T11:06:15;2.80;92.70
3408;DHT22;1717;50.240;8.406;2023-02-28T11:08:47;2.90;92.70
3408;DHT22;1717;50.240;8.406;2023-02-28T11:11:14;2.90;92.80
3408;DHT22;1717;50.240;8.406;2023-02-28T11:13:44;3.00;92.20
3408;DHT22;1717;50.240;8.406;2023-02-28T11:16:13;3.00;91.70
3408;DHT22;1717;50.240;8.406;2023-02-28T11:18:46;3.10;90.80
3408;DHT22;1717;50.240;8.406;2023-02-28T11:21:23;3.10;90.40
3408;DHT22;1717;50.240;8.406;2023-02-28T11:23:54;3.20;90.40
3408;DHT22;1717;50.240;8.406;2023-02-28T11:26:37;3.30;90.10
3408;DHT22;1717;50.240;8.406;2023-02-28T11:29:12;3.40;89.80
3408;DHT22;1717;50.240;8.406;2023-02-28T11:31:39;3.40;89.20
3408;DHT22;1717;50.240;8.406;2023-02-28T11:37:01;3.50;89.00
3408;DHT22;1717;50.240;8.406;2023-02-28T11:39:30;3.60;88.40
3408;DHT22;1717;50.240;8.406;2023-02-28T11:42:10;3.60;87.40
3408;DHT22;1717;50.240;8.406;2023-02-28T11:44:49;3.70;87.80
3408;DHT22;1717;50.240;8.406;2023-02-28T11:47:32;3.70;87.10
3408;DHT22;1717;50.240;8.406;2023-02-28T11:50:11;3.70;85.90
3408;DHT22;1717;50.240;8.406;2023-02-28T11:52:53;4.00;84.50
3408;DHT22;1717;50.240;8.406;2023-02-28T11:55:27;3.90;83.90
3408;DHT22;1717;50.240;8.406;2023-02-28T12:01:18;3.80;83.20
3408;DHT22;1717;50.240;8.406;2023-02-28T12:03:58;3.80;81.70
3408;DHT22;1717;50.240;8.406;2023-02-28T12:06:31;3.80;82.10
3408;DHT22;1717;50.240;8.406;2023-02-28T12:09:11;3.80;80.70
3408;DHT22;1717;50.240;8.406;2023-02-28T12:11:47;3.80;80.90
3408;DHT22;1717;50.240;8.406;2023-02-28T12:14:28;4.00;81.00
3408;DHT22;1717;50.240;8.406;2023-02-28T12:17:04;4.00;81.10
3408;DHT22;1717;50.240;8.406;2023-02-28T12:19:43;3.90;80.90
3408;DHT22;1717;50.240;8.406;2023-02-28T12:22:25;3.90;80.60
3408;DHT22;1717;50.240;8.406;2023-02-28T12:25:39;3.90;80.70
3408;DHT22;1717;50.240;8.406;2023-02-28T12:28:14;3.90;80.10
3408;DHT22;1717;50.240;8.406;2023-02-28T12:30:49;3.90;80.60
3408;DHT22;1717;50.240;8.406;2023-02-28T12:33:23;3.90;80.90
3408;DHT22;1717;50.240;8.406;2023-02-28T12:35:54;4.00;80.70
3408;DHT22;1717;50.240;8.406;2023-02-28T12:38:25;4.00;81.00
3408;DHT22;1717;50.240;8.406;2023-02-28T12:40:56;4.20;80.20
3408;DHT22;1717;50.240;8.406;2023-02-28T12:43:32;4.30;80.70
3408;DHT22;1717;50.240;8.406;2023-02-28T12:46:03;4.30;81.00
3408;DHT22;1717;50.240;8.406;2023-02-28T12:48:39;4.10;81.00
3408;DHT22;1717;50.240;8.406;2023-02-28T12:51:08;4.20;81.00
3408;DHT22;1717;50.240;8.406;2023-02-28T12:53:46;4.20;80.60
3408;DHT22;1717;50.240;8.406;2023-02-28T12:56:20;4.20;79.50
3408;DHT22;1717;50.240;8.406;2023-02-28T12:58:51;4.40;80.20
3408;DHT22;1717;50.240;8.406;2023-02-28T13:04:55;4.30;78.80
3408;DHT22;1717;50.240;8.406;2023-02-28T13:07:49;4.30;79.50
3408;DHT22;1717;50.240;8.406;2023-02-28T13:10:23;4.30;79.20
3408;DHT22;1717;50.240;8.406;2023-02-28T13:12:57;4.30;78.70
3408;DHT22;1717;50.240;8.406;2023-02-28T13:15:29;4.40;78.50
3408;DHT22;1717;50.240;8.406;2023-02-28T13:18:00;4.50;78.00
3408;DHT22;1717;50.240;8.406;2023-02-28T13:20:32;4.20;77.90
3408;DHT22;1717;50.240;8.406;2023-02-28T13:23:00;4.40;77.40
3408;DHT22;1717;50.240;8.406;2023-02-28T13:25:51;4.40;76.40
3408;DHT22;1717;50.240;8.406;2023-02-28T13:34:41;4.60;77.80
3408;DHT22;1717;50.240;8.406;2023-02-28T13:37:34;4.60;77.50
3408;DHT22;1717;50.240;8.406;2023-02-28T13:40:29;4.70;78.10
3408;DHT22;1717;50.240;8.406;2023-02-28T13:43:02;4.80;77.70
3408;DHT22;1717;50.240;8.406;2023-02-28T13:45:34;4.80;76.80
3408;DHT22;1717;50.240;8.406;2023-02-28T13:48:16;4.90;76.90
3408;DHT22;1717;50.240;8.406;2023-02-28T13:50:44;4.90;76.90
3408;DHT22;1717;50.240;8.406;2023-02-28T13:56:30;5.00;75.10
3408;DHT22;1717;50.240;8.406;2023-02-28T13:59:06;5.20;75.60
3408;DHT22;1717;50.240;8.406;2023-02-28T14:01:53;5.00;76.10
3408;DHT22;1717;50.240;8.406;2023-02-28T14:04:44;5.30;76.70
3408;DHT22;1717;50.240;8.406;2023-02-28T14:07:18;5.20;75.20
3408;DHT22;1717;50.240;8.406;2023-02-28T14:09:52;5.30;75.70
3408;DHT22;1717;50.240;8.406;2023-02-28T14:12:53;5.30;75.90
3408;DHT22;1717;50.240;8.406;2023-02-28T14:15:54;5.40;75.50
3408;DHT22;1717;50.240;8.406;2023-02-28T14:18:25;5.50;76.10
3408;DHT22;1717;50.240;8.406;2023-02-28T14:21:01;5.50;75.20
3408;DHT22;1717;50.240;8.406;2023-02-28T14:26:56;5.70;73.70
3408;DHT22;1717;50.240;8.406;2023-02-28T14:29:59;5.60;72.90
3408;DHT22;1717;50.240;8.406;2023-02-28T14:32:33;5.70;75.00
3408;DHT22;1717;50.240;8.406;2023-02-28T14:35:11;5.80;74.90
3408;DHT22;1717;50.240;8.406;2023-02-28T14:37:42;5.90;73.70
3408;DHT22;1717;50.240;8.406;2023-02-28T14:40:14;6.10;74.90
3408;DHT22;1717;50.240;8.406;2023-02-28T14:42:46;6.00;74.00
3408;DHT22;1717;50.240;8.406;2023-02-28T14:45:18;6.10;74.90
3408;DHT22;1717;50.240;8.406;2023-02-28T14:47:46;6.20;74.10
3408;DHT22;1717;50.240;8.406;2023-02-28T14:50:26;6.20;73.70
3408;DHT22;1717;50.240;8.406;2023-02-28T14:52:55;6.30;73.80
3408;DHT22;1717;50.240;8.406;2023-02-28T14:55:25;6.30;74.10
3408;DHT22;1717;50.240;8.406;2023-02-28T14:57:53;6.60;73.60
3408;DHT22;1717;50.240;8.406;2023-02-28T15:00:24;6.40;74.10
3408;DHT22;1717;50.240;8.406;2023-02-28T15:02:52;6.40;73.30
3408;DHT22;1717;50.240;8.406;2023-02-28T15:05:26;6.50;73.90
3408;DHT22;1717;50.240;8.406;2023-02-28T15:08:12;6.50;72.80
3408;DHT22;1717;50.240;8.406;2023-02-28T15:10:40;6.60;72.50
3408;DHT22;1717;50.240;8.406;2023-02-28T15:13:13;6.60;73.20
3408;DHT22;1717;50.240;8.406;2023-02-28T15:15:47;6.70;72.90
3408;DHT22;1717;50.240;8.406;2023-02-28T15:18:25;6.70;72.10
3408;DHT22;1717;50.240;8.406;2023-02-28T15:20:54;6.80;71.10
3408;DHT22;1717;50.240;8.406;2023-02-28T15:23:23;6.80;72.40
3408;DHT22;1717;50.240;8.406;2023-02-28T15:25:51;6.90;72.90
3408;DHT22;1717;50.240;8.406;2023-02-28T15:28:21;6.90;72.30
3408;DHT22;1717;50.240;8.406;2023-02-28T15:30:55;6.90;71.20
3408;DHT22;1717;50.240;8.406;2023-02-28T15:33:24;6.90;71.20
3408;DHT22;1717;50.240;8.406;2023-02-28T15:36:02;7.00;71.30
3408;DHT22;1717;50.240;8.406;2023-02-28T15:38:36;7.00;68.30
3408;DHT22;1717;50.240;8.406;2023-02-28T15:41:03;7.20;70.00
3408;DHT22;1717;50.240;8.406;2023-02-28T15:43:35;7.00;69.70
3408;DHT22;1717;50.240;8.406;2023-02-28T15:46:04;7.00;68.90
3408;DHT22;1717;50.240;8.406;2023-02-28T15:48:34;7.00;67.90
3408;DHT22;1717;50.240;8.406;2023-02-28T15:51:06;7.10;69.10
3408;DHT22;1717;50.240;8.406;2023-02-28T15:53:39;7.20;68.50
3408;DHT22;1717;50.240;8.406;2023-02-28T15:56:22;6.90;66.50
3408;DHT22;1717;50.240;8.406;2023-02-28T15:58:50;7.20;67.80
3408;DHT22;1717;50.240;8.406;2023-02-28T16:01:23;7.00;67.30
3408;DHT22;1717;50.240;8.406;2023-02-28T16:03:52;7.00;67.30
3408;DHT22;1717;50.240;8.406;2023-02-28T16:06:35;7.00;67.30
3408;DHT22;1717;50.240;8.406;2023-02-28T16:09:06;6.90;67.20
3408;DHT22;1717;50.240;8.406;2023-02-28T16:11:38;6.70;66.70
3408;DHT22;1717;50.240;8.406;2023-02-28T16:14:09;6.70;67.30
3408;DHT22;1717;50.240;8.406;2023-02-28T16:16:42;6.60;67.40
3408;DHT22;1717;50.240;8.406;2023-02-28T16:19:10;6.50;67.40
3408;DHT22;1717;50.240;8.406;2023-02-28T16:21:37;6.40;67.90
3408;DHT22;1717;50.240;8.406;2023-02-28T16:24:06;6.30;67.60
3408;DHT22;1717;50.240;8.406;2023-02-28T16:26:40;6.20;67.60
3408;DHT22;1717;50.240;8.406;2023-02-28T16:29:14;6.20;67.80
3408;DHT22;1717;50.240;8.406;2023-02-28T16:31:44;6.00;68.40
3408;DHT22;1717;50.240;8.406;2023-02-28T16:34:11;5.90;68.80
3408;DHT22;1717;50.240;8.406;2023-02-28T16:36:46;5.90;68.90
3408;DHT22;1717;50.240;8.406;2023-02-28T16:39:17;5.80;69.20
3408;DHT22;1717;50.240;8.406;2023-02-28T16:41:49;5.70;69.50
3408;DHT22;1717;50.240;8.406;2023-02-28T16:44:23;5.60;69.70
3408;DHT22;1717;50.240;8.406;2023-02-28T16:46:51;5.50;70.30
3408;DHT22;1717;50.240;8.406;2023-02-28T16:49:18;5.40;70.70
3408;DHT22;1717;50.240;8.406;2023-02-28T16:51:45;5.50;71.10
3408;DHT22;1717;50.240;8.406;2023-02-28T16:54:12;5.30;71.10
3408;DHT22;1717;50.240;8.406;2023-02-28T16:56:43;5.20;71.10
3408;DHT22;1717;50.240;8.406;2023-02-28T16:59:11;5.20;71.20
3408;DHT22;1717;50.240;8.406;2023-02-28T17:01:42;5.30;71.60
3408;DHT22;1717;50.240;8.406;2023-02-28T17:04:14;5.20;71.80
3408;DHT22;1717;50.240;8.406;2023-02-28T17:06:41;5.10;72.20